createdAt,value
2018-07-14T08:53:21.559Z,20.20
2018-07-14T09:08:32.768Z,20.70
2018-07-14T09:11:02.442Z,20.70
2018-07-14T09:13:31.794Z,21.10
2018-07-14T09:16:00.838Z,20.80
2018-07-14T09:18:30.340Z,20.90
2018-07-14T09:21:00.099Z,21.00
2018-07-14T09:23:30.956Z,21.00
2018-07-14T09:26:01.477Z,20.90
2018-07-14T09:28:30.826Z,20.80
2018-07-14T09:31:00.432Z,21.00
2018-07-14T09:33:35.262Z,21.40
2018-07-14T09:36:04.437Z,21.80
2018-07-14T09:41:03.140Z,22.40
2018-07-14T09:43:32.977Z,22.40
2018-07-14T09:46:02.484Z,22.00
2018-07-14T09:48:32.911Z,21.90
2018-07-14T09:51:02.519Z,22.20
2018-07-14T09:53:32.429Z,22.30
2018-07-14T09:56:02.429Z,22.20
2018-07-14T09:58:32.692Z,21.70
2018-07-14T10:01:09.552Z,21.90
2018-07-14T10:03:39.796Z,22.10
2018-07-14T10:06:09.416Z,22.50
2018-07-14T10:08:38.888Z,23.30
2018-07-14T10:11:08.116Z,23.70
2018-07-14T10:13:37.362Z,23.50
2018-07-14T10:16:06.136Z,22.70
2018-07-14T10:18:35.697Z,22.70
2018-07-14T10:21:05.797Z,22.70
2018-07-14T10:23:34.655Z,23.00
2018-07-14T10:26:03.891Z,23.30
2018-07-14T10:28:32.782Z,22.90
2018-07-14T10:31:01.980Z,22.40
2018-07-14T10:34:48.378Z,22.30
2018-07-14T10:37:17.276Z,22.40
2018-07-14T10:39:46.317Z,22.40
2018-07-14T11:11:07.545Z,23.80
2018-07-14T11:13:36.478Z,24.00
2018-07-14T11:16:07.131Z,24.40
2018-07-14T11:18:37.542Z,24.50
2018-07-14T11:21:06.310Z,24.60
2018-07-14T11:23:35.209Z,24.10
2018-07-14T11:26:05.086Z,23.80
2018-07-14T11:28:33.958Z,23.80
2018-07-14T11:31:03.243Z,23.70
2018-07-14T11:33:32.414Z,23.80
2018-07-14T11:36:02.295Z,23.60
2018-07-14T11:38:34.294Z,23.80
2018-07-14T11:47:22.028Z,25.20
2018-07-14T11:49:51.635Z,24.40
2018-07-14T11:52:28.150Z,23.90
2018-07-14T11:54:59.495Z,23.90
2018-07-14T11:57:29.000Z,23.90
2018-07-14T11:59:57.858Z,23.90
2018-07-14T12:02:26.894Z,24.20
2018-07-14T12:04:56.390Z,24.10
2018-07-14T12:07:25.792Z,24.50
2018-07-14T12:13:27.698Z,24.00
2018-07-14T12:15:57.184Z,23.90
2018-07-14T12:18:26.346Z,23.80
2018-07-14T12:20:55.982Z,23.80
2018-07-14T12:23:25.588Z,24.30
2018-07-14T12:25:54.675Z,24.60
2018-07-14T12:33:07.438Z,24.10
2018-07-14T12:35:36.188Z,24.10
2018-07-14T12:38:05.874Z,24.10
2018-07-14T12:40:35.446Z,24.30
2018-07-14T12:43:04.887Z,24.30
2018-07-14T12:45:34.153Z,24.40
2018-07-14T12:48:03.073Z,24.40
2018-07-14T12:50:32.113Z,24.30
2018-07-14T12:53:01.129Z,24.60
2018-07-14T12:55:30.607Z,24.90
2018-07-14T12:57:59.589Z,24.70
2018-07-14T13:00:35.009Z,24.80
2018-07-14T13:03:03.865Z,25.00
2018-07-14T13:05:32.701Z,25.00
2018-07-14T13:08:02.363Z,24.40
2018-07-14T13:10:31.351Z,24.30
2018-07-14T13:13:00.716Z,24.40
2018-07-14T13:15:29.823Z,24.50
2018-07-14T13:17:58.828Z,24.70
2018-07-14T13:20:27.841Z,24.80
2018-07-14T13:22:56.942Z,24.80
2018-07-14T13:25:25.940Z,24.90
2018-07-14T13:27:54.772Z,24.50
2018-07-14T13:30:23.977Z,24.30
2018-07-14T13:32:53.317Z,24.30
2018-07-14T13:35:23.237Z,24.50
2018-07-14T13:37:52.391Z,24.50
2018-07-14T13:40:21.534Z,24.50
2018-07-14T13:42:51.204Z,24.50
2018-07-14T13:45:20.322Z,24.60
2018-07-14T13:50:18.005Z,24.60
2018-07-14T13:55:15.832Z,24.80
2018-07-14T13:57:44.832Z,24.80
2018-07-14T14:00:13.884Z,24.80
2018-07-14T14:02:43.240Z,24.90
2018-07-14T14:05:12.081Z,24.80
2018-07-14T14:07:40.800Z,24.80
2018-07-14T14:10:09.798Z,24.40
2018-07-14T14:12:38.570Z,24.20
2018-07-14T14:15:07.696Z,24.10
2018-07-14T14:17:36.613Z,24.30
2018-07-14T14:22:35.373Z,24.30
2018-07-14T14:25:04.251Z,24.50
2018-07-14T14:27:33.670Z,24.70
2018-07-14T14:30:03.039Z,24.80
2018-07-14T14:32:32.163Z,24.80
2018-07-14T14:35:02.776Z,24.80
2018-07-14T14:37:31.542Z,24.90
2018-07-14T14:40:00.347Z,24.90
2018-07-14T14:42:29.339Z,24.90
2018-07-14T14:44:58.263Z,25.00
2018-07-14T14:47:27.736Z,25.00
2018-07-14T14:49:56.482Z,24.90
2018-07-14T14:52:25.311Z,25.10
2018-07-14T14:54:55.152Z,25.10
2018-07-14T15:00:33.821Z,25.00
2018-07-14T15:03:05.115Z,25.00
2018-07-14T15:05:37.435Z,25.00
2018-07-14T15:08:08.427Z,25.00
2018-07-14T15:10:37.627Z,24.90
2018-07-14T15:13:06.719Z,24.80
2018-07-14T15:15:35.610Z,24.90
2018-07-14T15:18:04.528Z,25.00
2018-07-14T15:23:09.349Z,25.10
2018-07-14T15:25:38.760Z,25.10
2018-07-14T15:30:36.589Z,25.00
2018-07-14T15:33:06.184Z,25.10
2018-07-14T15:35:35.200Z,25.10
2018-07-14T15:38:04.731Z,25.10
2018-07-14T15:40:34.045Z,24.90
2018-07-14T15:43:03.553Z,25.00
2018-07-14T15:45:32.851Z,25.10
2018-07-14T15:48:12.034Z,25.20
2018-07-14T15:50:41.487Z,25.10
2018-07-14T15:53:10.895Z,25.00
2018-07-14T15:55:40.478Z,25.00
2018-07-14T15:58:15.636Z,25.00
2018-07-14T16:03:20.047Z,25.00
2018-07-14T16:05:48.764Z,25.10
2018-07-14T16:08:22.607Z,25.00
2018-07-14T16:10:51.765Z,24.90
2018-07-14T16:13:22.587Z,24.90
2018-07-14T16:15:51.597Z,25.00
2018-07-14T16:18:20.693Z,24.90
2018-07-14T16:20:49.584Z,24.80
2018-07-14T16:23:18.426Z,24.90
2018-07-14T16:25:46.817Z,25.00
2018-07-14T16:28:16.161Z,25.00
2018-07-14T16:30:44.943Z,24.90
2018-07-14T16:33:13.376Z,24.70
2018-07-14T16:35:42.164Z,24.80
2018-07-14T16:40:39.385Z,25.00
2018-07-14T16:43:08.478Z,25.10
2018-07-14T16:45:37.431Z,25.10
2018-07-14T16:48:06.601Z,25.00
2018-07-14T16:50:35.687Z,25.10
2018-07-14T16:53:04.644Z,25.10
2018-07-14T16:55:34.191Z,25.10
2018-07-14T16:58:02.861Z,25.10
2018-07-14T17:00:31.752Z,25.00
2018-07-14T17:03:00.368Z,25.00
2018-07-14T17:05:29.318Z,24.90
2018-07-14T17:07:58.212Z,24.90
2018-07-14T17:12:55.213Z,24.80
2018-07-14T17:15:23.892Z,24.70
2018-07-14T17:17:52.748Z,24.80
2018-07-14T17:20:21.495Z,24.80
2018-07-14T17:22:50.194Z,24.80
2018-07-14T17:25:18.940Z,24.70
2018-07-14T17:27:47.974Z,24.70
2018-07-14T17:30:16.344Z,24.70
2018-07-14T17:32:44.661Z,24.90
2018-07-14T17:35:13.428Z,24.80
2018-07-14T18:25:45.219Z,24.60
2018-07-14T18:28:13.793Z,23.80
2018-07-14T18:30:43.042Z,23.70
2018-07-14T18:33:11.770Z,23.70
2018-07-14T18:35:40.241Z,23.70
2018-07-14T18:38:08.861Z,23.60
2018-07-14T18:40:37.191Z,23.60
2018-07-14T18:43:05.798Z,23.50
2018-07-14T18:45:34.145Z,23.40
2018-07-14T18:48:02.668Z,23.40
2018-07-14T18:50:31.298Z,23.30
2018-07-14T18:53:00.450Z,23.20
2018-07-14T18:55:28.942Z,23.10
2018-07-14T18:57:57.363Z,23.00
2018-07-14T19:00:25.917Z,23.00
2018-07-14T19:05:22.500Z,22.80
2018-07-14T19:07:50.817Z,22.70
2018-07-14T19:10:19.165Z,22.70
2018-07-14T19:12:47.503Z,22.60
2018-07-14T19:15:15.876Z,22.60
2018-07-14T19:17:44.206Z,22.50
2018-07-14T19:20:12.554Z,22.40
2018-07-14T19:22:40.892Z,22.40
2018-07-14T19:25:09.279Z,22.30
2018-07-14T19:27:37.613Z,22.30
2018-07-14T19:30:05.991Z,22.20
2018-07-14T19:32:34.266Z,22.10
2018-07-14T19:35:02.648Z,22.10
2018-07-14T19:39:58.942Z,22.00
2018-07-14T19:42:27.275Z,21.80
2018-07-14T19:44:55.611Z,21.60
2018-07-14T19:47:23.920Z,21.50
2018-07-14T19:49:52.260Z,21.40
2018-07-14T19:52:20.552Z,21.30
2018-07-14T19:54:48.879Z,21.20
2018-07-14T19:57:17.220Z,21.20
2018-07-14T19:59:45.522Z,21.20
2018-07-14T20:02:13.843Z,21.00
2018-07-14T20:04:42.130Z,20.90
2018-07-14T20:07:10.438Z,20.90
2018-07-14T20:09:38.761Z,20.80
2018-07-14T20:12:07.131Z,20.60
2018-07-14T20:14:35.443Z,20.60
2018-07-14T20:19:31.864Z,20.60
2018-07-14T20:22:00.230Z,20.60
2018-07-14T20:24:28.552Z,20.40
2018-07-14T20:26:56.928Z,20.30
2018-07-14T20:29:25.415Z,20.10
2018-07-14T20:34:21.799Z,20.00
2018-07-14T20:36:50.158Z,20.00
2018-07-14T20:39:18.576Z,20.00
2018-07-14T20:41:47.016Z,19.90
2018-07-14T20:44:15.260Z,19.80
2018-07-14T20:46:43.797Z,19.70
2018-07-14T20:49:12.155Z,19.60
2018-07-14T20:51:40.476Z,19.50
2018-07-14T20:54:08.844Z,19.50
2018-07-14T20:56:37.184Z,19.40
2018-07-14T20:59:05.951Z,19.40
2018-07-14T21:01:34.295Z,19.20
2018-07-14T21:04:02.635Z,19.10
2018-07-14T21:06:30.983Z,19.00
2018-07-14T21:08:59.288Z,18.90
2018-07-14T21:11:27.615Z,18.80
2018-07-14T21:13:55.962Z,18.80
2018-07-14T21:16:24.289Z,18.90
2018-07-14T21:18:52.615Z,18.90
2018-07-14T21:21:21.116Z,18.80
2018-07-14T21:23:49.328Z,18.70
2018-07-14T21:26:17.645Z,18.70
2018-07-14T21:28:46.005Z,18.60
2018-07-14T21:31:14.515Z,18.50
2018-07-14T21:33:42.856Z,18.40
2018-07-14T21:36:11.209Z,18.40
2018-07-14T21:38:39.534Z,18.40
2018-07-14T21:41:07.862Z,18.40
2018-07-14T21:43:36.184Z,18.30
2018-07-14T21:48:32.641Z,18.10
2018-07-14T21:51:01.003Z,18.00
2018-07-14T21:58:25.464Z,17.80
2018-07-14T22:01:05.239Z,17.80
2018-07-14T22:03:34.620Z,17.70
2018-07-14T22:06:03.730Z,17.70
2018-07-14T22:08:32.135Z,17.70
2018-07-14T22:11:01.310Z,17.70
2018-07-14T22:13:29.792Z,17.80
2018-07-14T22:15:58.369Z,17.80
2018-07-14T22:18:26.740Z,17.70
2018-07-14T22:20:55.152Z,17.50
2018-07-14T22:23:23.563Z,17.50
2018-07-14T22:25:51.912Z,17.50
2018-07-14T22:28:20.266Z,17.40
2018-07-14T22:30:48.967Z,17.30
2018-07-14T22:33:17.404Z,17.30
2018-07-14T22:35:45.735Z,17.20
2018-07-14T22:38:14.076Z,17.10
2018-07-14T22:40:42.433Z,17.00
2018-07-14T22:43:10.773Z,17.00
2018-07-14T22:45:39.108Z,17.10
2018-07-14T22:48:07.445Z,17.00
2018-07-14T22:50:35.770Z,17.00
2018-07-14T22:53:04.178Z,17.00
2018-07-14T22:55:32.518Z,16.90
2018-07-14T22:58:00.857Z,16.80
2018-07-14T23:00:29.195Z,16.70
2018-07-14T23:03:00.412Z,16.90
2018-07-14T23:05:28.754Z,16.90
2018-07-14T23:07:57.163Z,17.10
2018-07-14T23:10:25.603Z,17.10
2018-07-14T23:12:53.962Z,16.90
2018-07-14T23:15:22.299Z,16.80
2018-07-14T23:17:50.640Z,16.70
2018-07-14T23:20:18.953Z,16.60
2018-07-14T23:22:47.407Z,16.50
2018-07-14T23:25:15.747Z,16.50
2018-07-14T23:27:44.107Z,16.40
2018-07-14T23:30:12.469Z,16.30
2018-07-14T23:32:40.884Z,16.20
2018-07-14T23:35:09.251Z,16.20
2018-07-14T23:37:37.641Z,16.10
2018-07-14T23:40:06.117Z,16.10
2018-07-14T23:42:34.550Z,16.00
2018-07-14T23:45:02.969Z,16.00
2018-07-14T23:47:31.348Z,16.00
2018-07-14T23:49:59.804Z,15.90
2018-07-14T23:52:28.108Z,15.90
2018-07-14T23:54:56.592Z,15.90
2018-07-14T23:57:25.026Z,15.90
2018-07-14T23:59:53.387Z,15.90
